Time;durP1;ratioP1;P1;durP2;ratioP2;P2;SDS_P1;SDS_P2;PMS_P1;PMS_P2;Temp;Humidity;BMP_temperature;BMP_pressure;BME280_temperature;BME280_humidity;BME280_pressure;Samples;Min_cycle;Max_cycle;Signal;HPM_P1;HPM_P2
2022/01/19 00:00:50;;;;;;;84.53;40.70;;;5.10;99.90;;;;;;4947793;28;20050;-64
2022/01/19 00:03:16;;;;;;;91.43;40.28;;;5.00;99.90;;;;;;4974441;28;20085;-63
2022/01/19 00:05:43;;;;;;;93.45;41.40;;;5.00;99.90;;;;;;4945910;28;20057;-63
2022/01/19 00:08:15;;;;;;;94.50;43.25;;;5.00;99.90;;;;;;4954058;28;20062;-63
2022/01/19 00:10:42;;;;;;;94.95;41.58;;;5.10;99.90;;;;;;4993380;28;20101;-63
2022/01/19 00:13:09;;;;;;;87.78;41.20;;;5.00;99.90;;;;;;4953662;28;20518;-63
2022/01/19 00:15:35;;;;;;;88.00;40.08;;;5.00;99.90;;;;;;4963569;28;20036;-63
2022/01/19 00:18:01;;;;;;;86.00;40.05;;;5.00;99.90;;;;;;4956933;28;20067;-63
2022/01/19 00:20:30;;;;;;;75.70;37.85;;;5.10;99.90;;;;;;4969634;28;20082;-63
2022/01/19 00:22:57;;;;;;;79.65;37.97;;;5.10;99.90;;;;;;4995074;28;20090;-63
2022/01/19 00:25:23;;;;;;;80.88;35.08;;;5.10;99.90;;;;;;5023293;28;20047;-63
2022/01/19 00:27:50;;;;;;;76.60;34.45;;;5.10;99.90;;;;;;4961602;28;20044;-63
2022/01/19 00:30:17;;;;;;;71.57;34.10;;;5.20;99.90;;;;;;4930825;28;20459;-63
2022/01/19 00:32:43;;;;;;;74.43;34.92;;;5.20;99.90;;;;;;4949796;28;20051;-58
2022/01/19 00:35:11;;;;;;;69.53;34.83;;;5.20;99.90;;;;;;4956877;28;20062;-65
2022/01/19 00:37:40;;;;;;;66.22;32.60;;;5.20;99.90;;;;;;4965161;28;20058;-58
2022/01/19 00:40:09;;;;;;;69.88;33.60;;;5.20;99.90;;;;;;4977436;28;20852;-58
2022/01/19 00:42:35;;;;;;;63.42;32.85;;;5.30;99.90;;;;;;4958177;28;20141;-63
2022/01/19 00:45:05;;;;;;;70.25;34.80;;;5.20;99.90;;;;;;4963067;28;20055;-58
2022/01/19 00:47:31;;;;;;;58.85;31.25;;;5.20;99.90;;;;;;4958671;28;20039;-59
2022/01/19 00:49:58;;;;;;;81.13;35.65;;;5.10;99.90;;;;;;4985630;28;20410;-59
2022/01/19 00:52:25;;;;;;;74.55;37.33;;;5.10;99.90;;;;;;4947116;28;20041;-64
2022/01/19 00:54:52;;;;;;;67.45;33.72;;;4.90;99.90;;;;;;4953966;28;20100;-58
2022/01/19 00:57:18;;;;;;;66.82;32.53;;;4.80;99.90;;;;;;4981554;28;20054;-64
2022/01/19 00:59:45;;;;;;;74.82;34.63;;;4.70;99.90;;;;;;4957863;28;20392;-58
2022/01/19 01:02:12;;;;;;;77.82;35.70;;;4.60;99.90;;;;;;4949401;28;20055;-58
2022/01/19 01:04:40;;;;;;;69.20;31.40;;;4.50;99.90;;;;;;4950465;28;20047;-59
2022/01/19 01:07:06;;;;;;;76.13;33.58;;;4.60;99.90;;;;;;4959983;28;20051;-59
2022/01/19 01:09:32;;;;;;;72.28;33.65;;;4.60;99.90;;;;;;4966976;28;20055;-58
2022/01/19 01:12:02;;;;;;;88.38;37.65;;;4.60;99.90;;;;;;4964048;28;20062;-64
2022/01/19 01:20:04;;;;;;;87.80;38.80;;;4.80;99.90;;;;;;4972974;28;20514;-58
2022/01/19 01:22:30;;;;;;;86.25;36.67;;;4.80;99.90;;;;;;5053294;28;20047;-64
2022/01/19 01:24:56;;;;;;;83.78;37.90;;;4.80;99.90;;;;;;4991975;28;20097;-64
2022/01/19 01:27:22;;;;;;;89.43;36.42;;;4.80;99.90;;;;;;4958486;28;20618;-64
2022/01/19 01:29:48;;;;;;;83.20;35.67;;;4.80;99.90;;;;;;4949850;28;20053;-59
2022/01/19 01:32:15;;;;;;;82.38;37.17;;;4.80;99.90;;;;;;4947329;28;20055;-59
2022/01/19 01:34:41;;;;;;;78.00;34.55;;;4.80;99.90;;;;;;4961020;28;20063;-59
2022/01/19 01:37:07;;;;;;;79.28;36.53;;;4.80;99.90;;;;;;4939843;28;20828;-64
2022/01/19 01:39:34;;;;;;;74.88;35.83;;;4.80;99.90;;;;;;4974378;28;20057;-64
2022/01/19 01:42:00;;;;;;;84.40;35.13;;;4.80;99.90;;;;;;4948076;28;20118;-63
2022/01/19 01:44:37;;;;;;;89.30;36.85;;;4.80;99.90;;;;;;4967540;28;20090;-58
2022/01/19 01:47:05;;;;;;;78.90;35.85;;;4.70;99.90;;;;;;4983385;28;20189;-63
2022/01/19 01:54:56;;;;;;;85.85;36.85;;;4.70;99.90;;;;;;4971999;28;20501;-64
2022/01/19 01:57:22;;;;;;;84.53;37.38;;;4.60;99.90;;;;;;4963136;28;20047;-59
2022/01/19 01:59:49;;;;;;;89.45;37.00;;;4.70;99.90;;;;;;4962938;28;20144;-58
2022/01/19 02:02:40;;;;;;;93.07;38.55;;;4.70;99.90;;;;;;4970466;28;20081;-64
2022/01/19 02:05:10;;;;;;;81.32;37.72;;;4.70;99.90;;;;;;4989489;28;20062;-63
2022/01/19 02:08:10;;;;;;;102.20;39.53;;;4.70;99.90;;;;;;4961407;28;20070;-64
2022/01/19 02:22:03;;;;;;;94.43;39.85;;;4.50;99.90;;;;;;4953506;28;20047;-63
2022/01/19 02:24:31;;;;;;;105.57;39.75;;;4.50;99.90;;;;;;4984321;28;20053;-63
2022/01/19 02:27:09;;;;;;;111.50;40.40;;;4.50;99.90;;;;;;4970835;28;20157;-62
2022/01/19 02:40:30;;;;;;;108.53;42.15;;;4.40;99.90;;;;;;4966088;28;20137;-63
2022/01/19 02:43:09;;;;;;;114.10;42.20;;;4.40;99.90;;;;;;4963981;28;20051;-59
2022/01/19 02:51:09;;;;;;;141.20;46.85;;;4.40;99.90;;;;;;4958514;28;20156;-63
2022/01/19 02:53:36;;;;;;;119.18;45.85;;;4.40;99.90;;;;;;4974781;28;20100;-63
2022/01/19 02:56:09;;;;;;;136.95;46.25;;;4.40;99.90;;;;;;4969978;28;20180;-58
2022/01/19 02:58:42;;;;;;;152.70;49.00;;;4.40;99.90;;;;;;4962146;28;20225;-64
2022/01/19 03:09:25;;;;;;;136.02;49.97;;;4.40;99.90;;;;;;4966563;28;20476;-63
2022/01/19 03:11:53;;;;;;;130.02;47.20;;;4.40;99.90;;;;;;4936387;28;20051;-64
2022/01/19 03:14:19;;;;;;;149.13;48.25;;;4.40;99.90;;;;;;4968796;28;20043;-63
2022/01/19 03:16:46;;;;;;;143.95;49.65;;;4.40;99.90;;;;;;4953112;28;20077;-63
2022/01/19 03:19:13;;;;;;;144.35;50.10;;;4.40;99.90;;;;;;4962244;28;20082;-63
2022/01/19 03:21:41;;;;;;;130.70;48.72;;;4.40;99.90;;;;;;4954984;28;20049;-63
2022/01/19 03:24:10;;;;;;;143.88;46.97;;;4.40;99.90;;;;;;4953322;28;20062;-63
2022/01/19 03:26:36;;;;;;;148.35;46.17;;;4.30;99.90;;;;;;4969372;28;20046;-59
2022/01/19 03:29:33;;;;;;;153.95;49.20;;;4.30;99.90;;;;;;4947159;28;20549;-58
2022/01/19 03:32:00;;;;;;;189.35;52.85;;;4.20;99.90;;;;;;4936858;28;20477;-58
2022/01/19 03:34:28;;;;;;;193.90;53.00;;;4.20;99.90;;;;;;4977002;28;20090;-58
2022/01/19 03:37:00;;;;;;;251.63;58.78;;;4.20;99.90;;;;;;4948477;28;20089;-59
2022/01/19 03:39:26;;;;;;;219.68;52.38;;;4.20;99.90;;;;;;4968203;28;20401;-58
2022/01/19 03:41:52;;;;;;;162.88;49.97;;;4.20;99.90;;;;;;4967083;28;20055;-59
2022/01/19 03:44:18;;;;;;;162.75;51.60;;;4.10;99.90;;;;;;4962003;28;20054;-59
2022/01/19 03:46:56;;;;;;;136.98;48.45;;;4.10;99.90;;;;;;4984369;28;20500;-59
2022/01/19 03:49:25;;;;;;;127.03;47.25;;;4.10;99.90;;;;;;4960970;28;20052;-58
2022/01/19 03:51:58;;;;;;;122.47;47.97;;;4.10;99.90;;;;;;4963241;28;20529;-58
2022/01/19 03:54:51;;;;;;;116.20;46.10;;;4.10;99.90;;;;;;4944926;28;20154;-58
2022/01/19 03:57:17;;;;;;;117.72;44.03;;;4.10;99.90;;;;;;4963760;28;20862;-58
2022/01/19 03:59:44;;;;;;;147.15;48.83;;;4.10;99.90;;;;;;4958537;28;20051;-58
2022/01/19 04:02:10;;;;;;;116.43;45.15;;;4.00;99.90;;;;;;4956434;28;20516;-59
2022/01/19 04:04:48;;;;;;;112.78;45.50;;;4.00;99.90;;;;;;4933371;28;20051;-59
2022/01/19 04:07:15;;;;;;;109.68;43.90;;;4.00;99.90;;;;;;4966642;28;20058;-60
2022/01/19 04:09:45;;;;;;;103.47;41.83;;;3.90;99.90;;;;;;4964813;28;20051;-60
2022/01/19 04:12:16;;;;;;;109.47;43.15;;;3.90;99.90;;;;;;4966346;28;20156;-59
2022/01/19 04:14:43;;;;;;;99.88;40.30;;;3.80;99.90;;;;;;4935462;28;20078;-60
2022/01/19 04:17:14;;;;;;;101.85;41.50;;;3.80;99.90;;;;;;4972243;28;20051;-60
2022/01/19 04:19:46;;;;;;;96.18;41.38;;;3.80;99.90;;;;;;4928571;28;20042;-60
2022/01/19 04:22:23;;;;;;;88.90;37.55;;;3.70;99.90;;;;;;4945861;28;20054;-60
2022/01/19 04:24:52;;;;;;;109.22;42.45;;;3.70;99.90;;;;;;4961528;28;20554;-62
2022/01/19 04:29:57;;;;;;;90.40;39.40;;;3.60;99.90;;;;;;4956912;28;20050;-60
2022/01/19 04:32:32;;;;;;;107.15;41.85;;;3.50;99.90;;;;;;4966045;28;20122;-60
2022/01/19 04:35:03;;;;;;;96.55;41.13;;;3.60;99.90;;;;;;4969789;28;20071;-59
2022/01/19 05:05:17;;;;;;;96.30;40.78;;;3.30;99.90;;;;;;4973269;28;20083;-64
2022/01/19 05:07:56;;;;;;;83.50;36.75;;;3.30;99.90;;;;;;5034682;28;20074;-64
2022/01/19 05:13:35;;;;;;;97.28;39.45;;;3.30;99.90;;;;;;4940271;28;20087;-64
2022/01/19 05:16:01;;;;;;;96.65;40.55;;;3.30;99.90;;;;;;4983584;28;20055;-64
2022/01/19 05:18:28;;;;;;;102.50;42.10;;;3.30;99.90;;;;;;5003449;28;20047;-65
2022/01/19 05:20:54;;;;;;;90.40;41.13;;;3.20;99.90;;;;;;4996259;28;20052;-64
2022/01/19 05:23:39;;;;;;;95.05;42.30;;;3.20;99.90;;;;;;4960954;28;20051;-64
2022/01/19 05:26:05;;;;;;;101.97;41.28;;;3.10;99.90;;;;;;4967770;28;20058;-64
2022/01/19 05:28:38;;;;;;;88.88;41.70;;;3.10;99.90;;;;;;4979229;28;20288;-64
2022/01/19 05:31:05;;;;;;;93.90;42.10;;;3.00;99.90;;;;;;4962179;28;20088;-64
2022/01/19 05:33:32;;;;;;;102.32;43.03;;;3.10;99.90;;;;;;4963260;28;20047;-60
2022/01/19 05:35:58;;;;;;;105.97;44.63;;;3.10;99.90;;;;;;4989132;28;20051;-65
2022/01/19 05:38:54;;;;;;;111.25;46.47;;;3.10;99.90;;;;;;5017283;28;20922;-60
2022/01/19 05:41:25;;;;;;;108.23;43.03;;;3.10;99.90;;;;;;4966378;28;20043;-64
2022/01/19 05:43:51;;;;;;;106.25;44.60;;;3.10;99.90;;;;;;4940939;28;20130;-64
2022/01/19 05:46:20;;;;;;;105.90;45.78;;;3.10;99.90;;;;;;4968040;28;20519;-64
2022/01/19 05:48:46;;;;;;;103.50;46.10;;;3.10;99.90;;;;;;4959091;28;20135;-64
2022/01/19 05:51:12;;;;;;;114.47;45.83;;;3.20;99.90;;;;;;4961042;28;20108;-64
2022/01/19 05:53:38;;;;;;;110.50;45.75;;;3.20;99.90;;;;;;4941242;28;20187;-65
2022/01/19 05:56:06;;;;;;;106.63;46.97;;;3.20;99.90;;;;;;4947293;28;20598;-64
2022/01/19 05:58:38;;;;;;;111.50;47.58;;;3.20;99.90;;;;;;4970334;28;20083;-64
2022/01/19 06:01:05;;;;;;;107.95;46.70;;;3.20;99.90;;;;;;4973211;28;20101;-65
2022/01/19 06:03:31;;;;;;;108.78;47.63;;;3.30;99.90;;;;;;4985810;28;20079;-65
2022/01/19 06:05:57;;;;;;;103.78;45.47;;;3.30;99.90;;;;;;4975539;28;20086;-65
2022/01/19 06:08:41;;;;;;;105.40;44.50;;;3.30;99.90;;;;;;5055994;28;20051;-63
2022/01/19 06:11:08;;;;;;;101.07;45.70;;;3.30;99.90;;;;;;4993329;28;20041;-64
2022/01/19 06:13:35;;;;;;;90.03;45.30;;;3.30;99.90;;;;;;5009395;28;20047;-64
2022/01/19 06:16:01;;;;;;;106.55;45.95;;;3.30;99.90;;;;;;4934821;28;20063;-64
2022/01/19 06:18:29;;;;;;;95.93;44.85;;;3.40;99.90;;;;;;4980335;28;20055;-63
2022/01/19 06:20:55;;;;;;;106.65;47.15;;;3.40;99.90;;;;;;4980614;28;20044;-64
2022/01/19 06:23:26;;;;;;;102.82;45.28;;;3.40;99.90;;;;;;4947904;28;20078;-64
2022/01/19 06:26:03;;;;;;;96.38;45.63;;;3.40;99.90;;;;;;4977152;28;20067;-64
2022/01/19 06:28:30;;;;;;;89.13;44.30;;;3.40;99.90;;;;;;4951111;28;20047;-63
2022/01/19 06:30:58;;;;;;;91.00;43.88;;;3.50;99.90;;;;;;4974870;28;20157;-64
2022/01/19 06:33:24;;;;;;;92.10;43.45;;;3.50;99.90;;;;;;4969583;28;20090;-64
2022/01/19 06:35:52;;;;;;;84.88;40.42;;;3.50;99.90;;;;;;4974446;28;20059;-64
2022/01/19 06:38:45;;;;;;;76.40;39.30;;;3.50;99.90;;;;;;4970383;28;20132;-64
2022/01/19 06:41:24;;;;;;;80.63;40.17;;;3.50;99.90;;;;;;4930246;29;20371;-64
2022/01/19 06:43:50;;;;;;;78.03;39.55;;;3.50;99.90;;;;;;4946423;29;20138;-65
2022/01/19 06:46:16;;;;;;;85.18;42.85;;;3.50;99.90;;;;;;4932228;28;20113;-64
2022/01/19 06:48:43;;;;;;;78.75;40.75;;;3.50;99.90;;;;;;5020390;28;20056;-64
2022/01/19 06:51:10;;;;;;;80.38;42.88;;;3.60;99.90;;;;;;5039032;28;20135;-60
2022/01/19 06:53:43;;;;;;;85.82;43.80;;;3.50;99.90;;;;;;4994854;28;20043;-64
2022/01/19 06:56:16;;;;;;;78.38;38.78;;;3.60;99.90;;;;;;4988054;28;20044;-64
2022/01/19 06:58:43;;;;;;;82.93;39.38;;;3.60;99.90;;;;;;5012189;28;20082;-64
2022/01/19 07:01:23;;;;;;;77.55;38.67;;;3.60;99.90;;;;;;5000105;28;20057;-62
2022/01/19 07:04:19;;;;;;;71.22;39.05;;;3.60;99.90;;;;;;5001549;28;20123;-64
2022/01/19 07:06:45;;;;;;;71.65;39.03;;;3.60;99.90;;;;;;4980444;28;20047;-64
2022/01/19 07:09:11;;;;;;;72.35;38.53;;;3.60;99.90;;;;;;4970139;28;20544;-58
2022/01/19 07:11:43;;;;;;;69.03;37.58;;;3.60;99.90;;;;;;4971707;28;20054;-58
2022/01/19 07:14:12;;;;;;;63.60;35.90;;;3.60;99.90;;;;;;4974354;28;20047;-58
2022/01/19 07:16:39;;;;;;;68.15;39.17;;;3.60;99.90;;;;;;5049091;28;20450;-58
2022/01/19 07:19:06;;;;;;;65.57;36.20;;;3.60;99.90;;;;;;4975564;28;20098;-59
2022/01/19 07:21:32;;;;;;;57.05;35.38;;;3.60;99.90;;;;;;4963010;28;20121;-59
2022/01/19 07:23:59;;;;;;;64.45;35.83;;;3.60;99.90;;;;;;4975652;28;20495;-58
2022/01/19 07:26:26;;;;;;;59.47;35.90;;;3.60;99.90;;;;;;4962683;28;20053;-58
2022/01/19 07:28:53;;;;;;;57.05;33.42;;;3.50;99.90;;;;;;4962668;28;20055;-58
2022/01/19 07:31:19;;;;;;;52.78;34.58;;;3.60;99.90;;;;;;4961964;28;20047;-58
2022/01/19 07:33:47;;;;;;;49.70;33.15;;;3.60;99.90;;;;;;4978468;28;20147;-58
2022/01/19 07:36:15;;;;;;;49.67;35.03;;;3.60;99.90;;;;;;4945904;28;20100;-60
2022/01/19 07:38:41;;;;;;;53.53;34.58;;;3.60;99.90;;;;;;4962133;28;20121;-60
2022/01/19 07:41:09;;;;;;;54.20;34.10;;;3.50;99.90;;;;;;4961990;28;20057;-57
2022/01/19 07:43:41;;;;;;;46.85;33.20;;;3.50;99.90;;;;;;4962636;28;20050;-60
2022/01/19 07:46:33;;;;;;;52.42;33.30;;;3.50;99.90;;;;;;4954171;28;20055;-58
2022/01/19 07:49:11;;;;;;;53.05;32.58;;;3.50;99.90;;;;;;4988761;28;20407;-64
2022/01/19 07:51:45;;;;;;;46.80;32.10;;;3.50;99.90;;;;;;4983392;28;20038;-64
2022/01/19 07:54:25;;;;;;;45.47;33.97;;;3.50;99.90;;;;;;4980589;28;20043;-63
2022/01/19 07:57:07;;;;;;;50.50;33.88;;;3.50;99.90;;;;;;5020392;28;20055;-63
2022/01/19 08:00:04;;;;;;;52.20;33.53;;;3.50;99.90;;;;;;5044033;28;20099;-63
2022/01/19 08:02:43;;;;;;;53.50;34.03;;;3.50;99.90;;;;;;5047925;28;20462;-63
2022/01/19 08:05:27;;;;;;;49.58;34.53;;;3.50;99.90;;;;;;4962487;28;20063;-64
2022/01/19 08:07:55;;;;;;;50.22;35.13;;;3.50;99.90;;;;;;4988897;28;20051;-63
2022/01/19 08:10:21;;;;;;;52.65;34.65;;;3.50;99.90;;;;;;4997941;28;20068;-63
2022/01/19 08:12:51;;;;;;;55.85;36.85;;;3.50;99.90;;;;;;4991073;28;20501;-63
2022/01/19 08:15:18;;;;;;;57.53;36.85;;;3.50;99.90;;;;;;5047911;28;20133;-66
2022/01/19 08:17:45;;;;;;;57.38;37.30;;;3.50;99.90;;;;;;5018209;28;20053;-64
2022/01/19 08:20:12;;;;;;;54.25;36.97;;;3.50;99.90;;;;;;4997055;28;20095;-64
2022/01/19 08:22:39;;;;;;;53.38;35.88;;;3.60;99.90;;;;;;5045796;28;20076;-64
2022/01/19 08:25:16;;;;;;;54.42;36.28;;;3.50;99.90;;;;;;4988612;28;20051;-64
2022/01/19 08:27:43;;;;;;;49.08;34.75;;;3.50;99.90;;;;;;5043060;28;20059;-64
2022/01/19 08:30:12;;;;;;;58.08;38.38;;;3.60;99.90;;;;;;4945525;28;20132;-64
2022/01/19 08:32:40;;;;;;;57.20;37.95;;;3.50;99.90;;;;;;4970597;28;20052;-64
2022/01/19 08:35:28;;;;;;;59.88;36.25;;;3.60;99.90;;;;;;4960919;28;20054;-64
2022/01/19 08:38:13;;;;;;;53.03;36.72;;;3.60;99.90;;;;;;4986982;28;20487;-64
2022/01/19 08:40:46;;;;;;;54.60;38.03;;;3.60;99.90;;;;;;4984452;28;20063;-64
2022/01/19 08:43:17;;;;;;;54.13;37.63;;;3.60;99.90;;;;;;4976016;28;20495;-66
2022/01/19 08:45:44;;;;;;;59.28;37.83;;;3.60;99.90;;;;;;4969581;28;20524;-64
2022/01/19 08:48:12;;;;;;;58.63;38.45;;;3.60;99.90;;;;;;5003240;28;20524;-64
2022/01/19 08:50:59;;;;;;;52.47;35.88;;;3.60;99.90;;;;;;4980830;28;20055;-64
2022/01/19 08:53:40;;;;;;;55.17;35.85;;;3.60;99.90;;;;;;4970152;28;20180;-65
2022/01/19 08:56:24;;;;;;;53.53;37.38;;;3.60;99.90;;;;;;4966307;28;20133;-64
2022/01/19 08:58:51;;;;;;;55.15;36.85;;;3.70;99.90;;;;;;5000264;28;20459;-65
2022/01/19 09:01:17;;;;;;;57.90;38.03;;;3.60;99.90;;;;;;4979799;28;20049;-64
2022/01/19 09:03:43;;;;;;;59.10;40.78;;;3.60;99.90;;;;;;5001877;28;20516;-64
2022/01/19 09:06:09;;;;;;;62.15;41.83;;;3.60;99.90;;;;;;5051420;28;20047;-64
2022/01/19 09:08:35;;;;;;;63.55;41.60;;;3.60;99.90;;;;;;4992585;28;20047;-64
2022/01/19 09:11:03;;;;;;;65.30;42.13;;;3.70;99.90;;;;;;4994921;28;20051;-64
2022/01/19 09:13:29;;;;;;;65.85;42.20;;;3.70;99.90;;;;;;4958330;28;20075;-64
2022/01/19 09:15:55;;;;;;;64.50;42.17;;;3.60;99.90;;;;;;4981204;28;20050;-64
2022/01/19 09:18:21;;;;;;;62.28;43.78;;;3.60;99.90;;;;;;4987442;28;20054;-64
2022/01/19 09:20:48;;;;;;;67.28;44.72;;;3.70;99.90;;;;;;4970386;28;20482;-58
2022/01/19 09:23:14;;;;;;;68.20;43.83;;;3.70;99.90;;;;;;4983027;28;20050;-63
2022/01/19 09:25:40;;;;;;;70.40;44.83;;;3.70;99.90;;;;;;4989934;28;20562;-63
2022/01/19 09:28:10;;;;;;;60.33;43.60;;;3.70;99.90;;;;;;4975092;28;20044;-64
2022/01/19 09:30:37;;;;;;;65.05;44.08;;;3.80;99.90;;;;;;5003392;28;20051;-63
2022/01/19 09:33:09;;;;;;;64.03;43.25;;;3.70;99.90;;;;;;5038916;28;20047;-63
2022/01/19 09:38:44;;;;;;;69.38;47.17;;;3.80;99.90;;;;;;5009905;28;20132;-64
2022/01/19 09:41:11;;;;;;;69.40;48.05;;;3.80;99.90;;;;;;4992395;28;20045;-63
2022/01/19 09:43:38;;;;;;;72.32;45.78;;;3.80;99.90;;;;;;4995041;28;20486;-63
2022/01/19 09:46:04;;;;;;;71.60;46.75;;;3.80;99.90;;;;;;4981403;28;20503;-64
2022/01/19 09:48:30;;;;;;;73.30;47.78;;;3.80;99.90;;;;;;5007056;28;20049;-64
2022/01/19 09:50:57;;;;;;;68.88;46.67;;;3.90;99.90;;;;;;5008336;28;20125;-65
2022/01/19 09:53:24;;;;;;;68.00;45.92;;;3.90;99.90;;;;;;4990958;28;20502;-64
2022/01/19 09:55:50;;;;;;;69.95;47.40;;;3.90;99.90;;;;;;4981246;28;20063;-64
2022/01/19 09:58:18;;;;;;;73.68;48.08;;;4.00;99.90;;;;;;4981484;28;20510;-64
2022/01/19 10:00:45;;;;;;;73.30;47.33;;;4.00;99.90;;;;;;5032280;28;20137;-64
2022/01/19 10:03:15;;;;;;;77.38;47.10;;;4.00;99.90;;;;;;5004364;28;20577;-64
2022/01/19 10:05:57;;;;;;;64.32;45.25;;;4.00;99.90;;;;;;5039080;28;20040;-64
2022/01/19 10:08:34;;;;;;;72.72;47.78;;;4.10;99.90;;;;;;4958115;28;20129;-66
2022/01/19 10:11:20;;;;;;;73.22;49.00;;;4.20;99.90;;;;;;5006454;28;20086;-65
2022/01/19 10:17:00;;;;;;;69.18;44.95;;;4.20;99.90;;;;;;4989208;28;20043;-64
2022/01/19 10:19:45;;;;;;;70.03;44.50;;;4.20;99.90;;;;;;5003429;28;20051;-64
2022/01/19 10:22:18;;;;;;;69.55;45.70;;;4.20;99.90;;;;;;5010979;28;20446;-64
2022/01/19 10:24:50;;;;;;;70.80;47.20;;;4.30;99.90;;;;;;5003528;28;20452;-64
2022/01/19 10:27:39;;;;;;;67.97;45.53;;;4.20;99.90;;;;;;4987671;28;20128;-64
2022/01/19 10:30:05;;;;;;;68.80;45.67;;;4.20;99.90;;;;;;4974563;28;20064;-64
2022/01/19 10:33:02;;;;;;;72.18;47.53;;;4.30;99.90;;;;;;4994225;28;20043;-64
2022/01/19 10:35:32;;;;;;;74.25;48.28;;;4.30;99.90;;;;;;4987454;28;20123;-64
2022/01/19 10:38:24;;;;;;;74.35;48.30;;;4.30;99.90;;;;;;5001532;28;20054;-64
2022/01/19 10:41:01;;;;;;;72.93;48.58;;;4.40;99.90;;;;;;5011825;28;20379;-64
2022/01/19 10:43:30;;;;;;;78.95;51.10;;;4.40;99.90;;;;;;5021950;28;20060;-58
2022/01/19 10:45:59;;;;;;;77.10;48.28;;;4.40;99.90;;;;;;5024793;28;20051;-59
2022/01/19 10:48:36;;;;;;;74.35;48.40;;;4.40;99.90;;;;;;4987662;28;20047;-59
2022/01/19 10:51:14;;;;;;;73.03;51.35;;;4.40;99.90;;;;;;4978100;28;20398;-58
2022/01/19 10:53:44;;;;;;;80.60;51.13;;;4.50;99.90;;;;;;4982494;28;20051;-58
2022/01/19 10:56:29;;;;;;;74.72;50.17;;;4.50;99.90;;;;;;4994813;28;20120;-59
2022/01/19 10:59:13;;;;;;;83.18;50.85;;;4.50;99.90;;;;;;4994420;28;20127;-59
2022/01/19 11:01:43;;;;;;;79.78;55.92;;;4.50;99.90;;;;;;4969695;28;20051;-58
2022/01/19 11:04:34;;;;;;;81.28;53.05;;;4.50;99.90;;;;;;4981412;28;20142;-59
2022/01/19 11:07:06;;;;;;;79.57;50.67;;;4.60;99.90;;;;;;4975912;28;20054;-59
2022/01/19 11:09:35;;;;;;;78.47;52.30;;;4.60;99.90;;;;;;4995076;28;20302;-59
2022/01/19 11:12:07;;;;;;;81.60;52.80;;;4.60;99.90;;;;;;4974192;28;20055;-58
2022/01/19 11:14:37;;;;;;;84.65;53.72;;;4.60;99.90;;;;;;4964763;28;20038;-58
2022/01/19 11:17:04;;;;;;;86.05;53.20;;;4.60;99.90;;;;;;4961530;28;20050;-59
2022/01/19 11:19:30;;;;;;;83.68;55.58;;;4.60;99.90;;;;;;4993447;28;20054;-58
2022/01/19 11:22:12;;;;;;;92.45;54.58;;;4.60;99.90;;;;;;4963676;28;20039;-58
2022/01/19 11:24:53;;;;;;;90.47;56.38;;;4.60;99.90;;;;;;4958037;28;20124;-58
2022/01/19 11:27:20;;;;;;;82.97;54.00;;;4.50;99.90;;;;;;4954153;28;20043;-58
2022/01/19 11:30:07;;;;;;;91.18;57.92;;;4.50;99.90;;;;;;4955178;28;20040;-58
2022/01/19 11:32:33;;;;;;;94.25;55.25;;;4.50;99.90;;;;;;4981987;28;20394;-58
2022/01/19 11:35:02;;;;;;;100.85;56.97;;;4.50;99.90;;;;;;4971971;28;20054;-58
2022/01/19 11:37:35;;;;;;;99.78;58.22;;;4.50;99.90;;;;;;4986986;28;20290;-58
2022/01/19 11:40:18;;;;;;;103.38;61.42;;;4.50;99.90;;;;;;4952669;28;20402;-58
2022/01/19 11:42:45;;;;;;;113.60;62.33;;;4.50;99.90;;;;;;4953800;28;20493;-58
2022/01/19 11:45:40;;;;;;;107.15;62.47;;;4.50;99.90;;;;;;4979083;28;20039;-58
2022/01/19 11:48:17;;;;;;;110.07;62.47;;;4.50;99.90;;;;;;4978618;28;20047;-64
2022/01/19 11:50:45;;;;;;;101.32;59.95;;;4.50;99.90;;;;;;5006214;28;20047;-58
2022/01/19 11:53:12;;;;;;;114.05;64.97;;;4.40;99.90;;;;;;4971773;28;20081;-64
2022/01/19 11:55:41;;;;;;;116.03;63.90;;;4.40;99.90;;;;;;5000366;28;20063;-58
2022/01/19 11:58:15;;;;;;;119.57;67.32;;;4.40;99.90;;;;;;4986877;28;20047;-58
2022/01/19 12:00:44;;;;;;;114.07;64.25;;;4.40;99.90;;;;;;5025690;28;21342;-58
2022/01/19 12:03:29;;;;;;;122.22;65.53;;;4.50;99.90;;;;;;4975849;28;20050;-58
2022/01/19 12:05:56;;;;;;;117.63;65.43;;;4.50;99.90;;;;;;4958972;28;20043;-58
2022/01/19 12:08:24;;;;;;;118.25;66.05;;;4.50;99.90;;;;;;4975554;28;20054;-58
2022/01/19 12:10:55;;;;;;;111.93;63.78;;;4.50;99.90;;;;;;4975051;28;20054;-58
2022/01/19 12:16:52;;;;;;;121.45;70.85;;;4.50;99.90;;;;;;4971612;28;20043;-58
2022/01/19 12:19:01;;;;;;;113.50;66.43;;;4.60;99.90;;;;;;4951383;28;20051;-58
2022/01/19 12:21:48;;;;;;;114.68;63.95;;;4.60;99.90;;;;;;4958103;28;20469;-58
2022/01/19 12:24:26;;;;;;;106.50;63.70;;;4.70;99.90;;;;;;4966957;28;20047;-58
2022/01/19 12:26:52;;;;;;;108.15;63.88;;;4.70;99.90;;;;;;4957170;28;20078;-58
2022/01/19 12:29:38;;;;;;;105.03;63.25;;;4.70;99.90;;;;;;4960296;28;20160;-59
2022/01/19 12:32:08;;;;;;;108.10;66.13;;;4.70;99.90;;;;;;4976159;28;20472;-59
2022/01/19 12:34:45;;;;;;;108.97;64.13;;;4.70;99.90;;;;;;4950076;28;20051;-59
2022/01/19 12:37:33;;;;;;;105.60;61.30;;;4.70;99.90;;;;;;4981970;28;20051;-59
2022/01/19 12:40:17;;;;;;;113.53;65.88;;;4.70;99.90;;;;;;4937920;28;20109;-59
2022/01/19 12:43:03;;;;;;;115.18;63.67;;;4.70;99.90;;;;;;4961858;28;20527;-64
2022/01/19 12:45:35;;;;;;;114.57;64.72;;;4.70;99.90;;;;;;4965294;28;20047;-65
2022/01/19 12:48:07;;;;;;;111.53;62.72;;;4.70;99.90;;;;;;4992577;28;21177;-64
2022/01/19 12:50:33;;;;;;;115.03;65.05;;;4.70;99.90;;;;;;4973837;28;20058;-65
2022/01/19 12:53:21;;;;;;;109.60;60.95;;;4.60;99.90;;;;;;4960034;28;20058;-64
2022/01/19 12:55:56;;;;;;;109.90;64.45;;;4.70;99.90;;;;;;4953940;28;20046;-64
2022/01/19 12:58:40;;;;;;;114.38;64.25;;;4.60;99.90;;;;;;4955421;28;20046;-64
2022/01/19 13:01:09;;;;;;;119.85;64.82;;;4.60;99.90;;;;;;4962369;28;20055;-64
2022/01/19 13:03:40;;;;;;;116.40;66.50;;;4.60;99.90;;;;;;4968318;28;20069;-58
2022/01/19 13:06:13;;;;;;;122.50;65.07;;;4.60;99.90;;;;;;4954031;28;20057;-58
2022/01/19 13:08:59;;;;;;;110.82;63.95;;;4.70;99.90;;;;;;4951497;28;20607;-58
2022/01/19 13:11:47;;;;;;;121.88;63.95;;;4.60;99.90;;;;;;4931899;28;20055;-64
2022/01/19 13:14:13;;;;;;;110.40;64.47;;;4.70;99.90;;;;;;4954996;28;20051;-64
2022/01/19 13:16:44;;;;;;;114.07;65.75;;;4.70;99.90;;;;;;4979672;28;20055;-64
2022/01/19 13:19:13;;;;;;;107.33;64.50;;;4.70;99.90;;;;;;4967241;28;20465;-64
2022/01/19 13:21:42;;;;;;;112.63;64.93;;;4.70;99.90;;;;;;5007317;28;20095;-66
2022/01/19 13:24:15;;;;;;;102.47;61.22;;;4.80;99.90;;;;;;4960283;28;20269;-64
2022/01/19 13:26:45;;;;;;;104.85;61.60;;;4.80;99.90;;;;;;4975284;28;20055;-64
2022/01/19 13:29:15;;;;;;;98.80;60.00;;;4.80;99.90;;;;;;4959698;28;20136;-64
2022/01/19 13:31:52;;;;;;;97.70;59.75;;;4.90;99.90;;;;;;4961189;28;20059;-64
2022/01/19 13:34:18;;;;;;;96.50;59.17;;;4.90;99.90;;;;;;4954381;28;20070;-64
2022/01/19 13:36:51;;;;;;;100.43;60.38;;;5.00;99.90;;;;;;4973855;28;20055;-64
2022/01/19 13:39:20;;;;;;;92.20;57.03;;;5.00;99.90;;;;;;4959061;28;20537;-64
2022/01/19 13:41:47;;;;;;;99.15;54.58;;;5.10;99.90;;;;;;4959720;28;20487;-64
2022/01/19 13:44:16;;;;;;;84.72;51.33;;;5.10;99.90;;;;;;4991315;28;20646;-64
2022/01/19 13:46:42;;;;;;;88.22;51.97;;;5.20;99.90;;;;;;4971365;28;20555;-64
2022/01/19 13:49:08;;;;;;;80.88;52.65;;;5.20;99.90;;;;;;5010904;28;20086;-64
2022/01/19 13:51:41;;;;;;;83.47;49.10;;;5.20;99.90;;;;;;4998616;28;20059;-64
2022/01/19 13:54:07;;;;;;;80.22;49.33;;;5.20;99.90;;;;;;5005479;28;20137;-64
2022/01/19 13:56:39;;;;;;;76.28;50.33;;;5.30;99.90;;;;;;4983848;28;20050;-64
2022/01/19 13:59:10;;;;;;;76.22;46.60;;;5.30;99.90;;;;;;5011896;28;20120;-64
2022/01/19 14:01:40;;;;;;;67.00;45.00;;;5.40;99.90;;;;;;4996365;28;20064;-64
2022/01/19 14:04:11;;;;;;;69.32;43.38;;;5.40;99.90;;;;;;5009005;28;20053;-64
2022/01/19 14:06:42;;;;;;;65.95;43.70;;;5.50;99.90;;;;;;5013348;28;20103;-65
2022/01/19 14:09:11;;;;;;;64.93;40.97;;;5.50;99.90;;;;;;5030925;28;20446;-65
2022/01/19 14:11:46;;;;;;;69.88;46.25;;;5.50;99.90;;;;;;4993014;28;20051;-64
2022/01/19 14:14:25;;;;;;;64.38;42.25;;;5.50;99.90;;;;;;5008651;28;20044;-64
2022/01/19 14:16:55;;;;;;;64.57;43.90;;;5.50;99.90;;;;;;4976239;28;20078;-64
2022/01/19 14:19:30;;;;;;;64.47;42.35;;;5.50;99.90;;;;;;4992393;28;20044;-64
2022/01/19 14:22:14;;;;;;;68.60;42.78;;;5.50;99.90;;;;;;5047115;28;20043;-64
2022/01/19 14:24:40;;;;;;;69.40;44.00;;;5.40;99.90;;;;;;5009834;28;20081;-64